Time;durP1;ratioP1;P1;durP2;ratioP2;P2;SDS_P1;SDS_P2;PMS_P1;PMS_P2;Temp;Humidity;BMP_temperature;BMP_pressure;BME280_temperature;BME280_humidity;BME280_pressure;Samples;Min_cycle;Max_cycle;Signal;HPM_P1;HPM_P2
2021/12/04 00:01:00;;;;;;;18.49;8.97;;;;;;;;;;363850;146;863916;-58
2021/12/04 00:02:05;;;;;;;21.90;13.21;;;;;;;;;;361985;145;864869;-59
2021/12/04 00:03:05;;;;;;;16.91;9.99;;;;;;;;;;361400;144;865501;-57
2021/12/04 00:04:07;;;;;;;19.71;11.44;;;;;;;;;;363441;146;864991;-57
2021/12/04 00:05:09;;;;;;;20.09;11.50;;;;;;;;;;365238;145;857303;-58
2021/12/04 00:06:19;;;;;;;20.33;10.95;;;;;;;;;;362194;145;857366;-58
2021/12/04 00:07:15;;;;;;;23.21;12.80;;;;;;;;;;362179;146;857181;-58
2021/12/04 00:08:16;;;;;;;21.87;11.39;;;;;;;;;;363574;146;856258;-59
2021/12/04 00:09:20;;;;;;;18.82;10.66;;;;;;;;;;360749;145;857363;-58
2021/12/04 00:10:27;;;;;;;21.29;10.92;;;;;;;;;;362106;145;863651;-59
2021/12/04 00:11:25;;;;;;;22.58;11.66;;;;;;;;;;362388;146;864653;-58
2021/12/04 00:12:27;;;;;;;22.41;12.56;;;;;;;;;;364415;145;858313;-58
2021/12/04 00:13:28;;;;;;;16.32;8.77;;;;;;;;;;362845;145;864825;-56
2021/12/04 00:14:30;;;;;;;24.66;13.59;;;;;;;;;;366385;146;857108;-59
2021/12/04 00:15:32;;;;;;;17.49;7.74;;;;;;;;;;364506;146;866543;-60
2021/12/04 00:16:33;;;;;;;22.96;12.07;;;;;;;;;;363581;146;866805;-59
2021/12/04 00:17:35;;;;;;;18.00;11.09;;;;;;;;;;365203;146;867579;-58
2021/12/04 00:18:37;;;;;;;22.33;12.40;;;;;;;;;;362358;145;864509;-59
2021/12/04 00:19:39;;;;;;;22.81;12.14;;;;;;;;;;364935;145;858078;-58
2021/12/04 00:20:41;;;;;;;22.36;12.61;;;;;;;;;;364523;145;864879;-59
2021/12/04 00:21:43;;;;;;;25.16;13.71;;;;;;;;;;365045;146;864784;-59
2021/12/04 00:22:44;;;;;;;23.46;12.29;;;;;;;;;;363400;145;865474;-59
2021/12/04 00:23:46;;;;;;;18.63;11.28;;;;;;;;;;355924;150;864834;-59
2021/12/04 00:24:48;;;;;;;19.86;11.46;;;;;;;;;;363884;145;866443;-58
2021/12/04 00:25:49;;;;;;;21.06;12.30;;;;;;;;;;363606;145;864830;-58
2021/12/04 00:26:51;;;;;;;17.57;9.84;;;;;;;;;;365270;145;860987;-58
2021/12/04 00:27:53;;;;;;;22.56;12.78;;;;;;;;;;362837;145;860168;-58
2021/12/04 00:28:54;;;;;;;23.45;13.26;;;;;;;;;;365040;145;864739;-58
2021/12/04 00:29:57;;;;;;;18.66;10.74;;;;;;;;;;362810;145;866432;-60
2021/12/04 00:31:04;;;;;;;18.84;11.69;;;;;;;;;;363352;146;861447;-59
2021/12/04 00:32:11;;;;;;;20.08;12.68;;;;;;;;;;359675;147;857572;-58
2021/12/04 00:33:16;;;;;;;21.82;13.28;;;;;;;;;;358386;148;857559;-59
2021/12/04 00:34:13;;;;;;;19.66;12.11;;;;;;;;;;358109;148;857655;-58
2021/12/04 00:49:12;;;;;;;21.72;11.43;;;;;;;;;;359354;147;859071;-58
2021/12/04 00:50:14;;;;;;;22.86;11.77;;;;;;;;;;360173;148;857779;-58
2021/12/04 00:51:17;;;;;;;19.87;11.19;;;;;;;;;;360114;148;856258;-58
2021/12/04 00:52:18;;;;;;;23.44;12.34;;;;;;;;;;358417;148;865461;-58
2021/12/04 00:53:20;;;;;;;24.31;13.81;;;;;;;;;;359663;148;857704;-58
2021/12/04 00:54:22;;;;;;;26.28;13.99;;;;;;;;;;359471;148;864807;-58
2021/12/04 00:55:24;;;;;;;26.39;13.31;;;;;;;;;;359027;147;859838;-58
2021/12/04 00:56:25;;;;;;;21.74;13.00;;;;;;;;;;358771;148;857256;-59
2021/12/04 00:57:27;;;;;;;25.36;12.95;;;;;;;;;;359275;148;857261;-58
2021/12/04 00:58:28;;;;;;;20.41;11.26;;;;;;;;;;359012;148;865325;-58
2021/12/04 00:59:30;;;;;;;24.26;12.67;;;;;;;;;;359664;147;857179;-58
2021/12/04 01:00:32;;;;;;;18.31;10.62;;;;;;;;;;361158;148;863003;-58
2021/12/04 01:01:33;;;;;;;19.52;12.26;;;;;;;;;;362134;148;857351;-58
2021/12/04 01:02:35;;;;;;;25.84;13.32;;;;;;;;;;359238;147;864952;-57
2021/12/04 01:03:37;;;;;;;20.86;12.54;;;;;;;;;;360096;148;857844;-58
2021/12/04 01:04:38;;;;;;;20.79;12.00;;;;;;;;;;358207;147;864224;-59
2021/12/04 01:05:40;;;;;;;24.21;13.37;;;;;;;;;;356533;148;865621;-58
2021/12/04 01:06:42;;;;;;;24.51;12.60;;;;;;;;;;359475;147;864844;-58
2021/12/04 01:07:43;;;;;;;20.16;12.00;;;;;;;;;;360599;147;857508;-58
2021/12/04 01:08:45;;;;;;;24.14;12.89;;;;;;;;;;361897;147;865848;-57
2021/12/04 01:09:47;;;;;;;22.73;12.04;;;;;;;;;;359709;147;860907;-58
2021/12/04 01:10:48;;;;;;;20.69;11.77;;;;;;;;;;359040;147;866724;-58
2021/12/04 01:11:50;;;;;;;19.75;11.95;;;;;;;;;;359878;147;857938;-58
2021/12/04 01:12:52;;;;;;;22.65;12.45;;;;;;;;;;359055;148;861923;-58
2021/12/04 01:13:54;;;;;;;22.47;12.77;;;;;;;;;;360523;147;857288;-58
2021/12/04 01:14:56;;;;;;;20.73;11.87;;;;;;;;;;360501;148;857118;-58
2021/12/04 01:15:57;;;;;;;20.60;12.54;;;;;;;;;;360432;147;866513;-58
2021/12/04 01:16:59;;;;;;;22.66;12.00;;;;;;;;;;359918;147;857531;-58
2021/12/04 01:18:00;;;;;;;23.26;12.61;;;;;;;;;;359395;147;864119;-57
2021/12/04 01:19:02;;;;;;;21.98;13.00;;;;;;;;;;361984;148;864997;-58
2021/12/04 01:20:04;;;;;;;24.55;13.39;;;;;;;;;;359578;147;865800;-59
2021/12/04 01:21:06;;;;;;;22.05;12.36;;;;;;;;;;361439;148;859325;-59
2021/12/04 01:22:07;;;;;;;20.08;10.66;;;;;;;;;;357885;148;857275;-58
2021/12/04 01:23:09;;;;;;;21.14;11.38;;;;;;;;;;359125;148;863574;-58
2021/12/04 01:24:11;;;;;;;14.94;8.49;;;;;;;;;;359150;147;865317;-58
2021/12/04 01:25:12;;;;;;;15.96;9.46;;;;;;;;;;362129;147;865685;-58
2021/12/04 01:26:14;;;;;;;21.45;12.27;;;;;;;;;;360342;148;864990;-58
2021/12/04 01:27:16;;;;;;;24.06;12.52;;;;;;;;;;361919;148;857118;-58
2021/12/04 01:28:18;;;;;;;21.23;12.27;;;;;;;;;;360190;147;863972;-58
2021/12/04 01:29:19;;;;;;;20.34;11.21;;;;;;;;;;357191;147;857598;-58
2021/12/04 01:30:22;;;;;;;23.62;12.88;;;;;;;;;;362971;147;866398;-59
2021/12/04 01:31:24;;;;;;;18.52;11.72;;;;;;;;;;358373;147;857128;-58
2021/12/04 01:32:26;;;;;;;14.94;8.91;;;;;;;;;;361740;147;866210;-58
2021/12/04 01:33:27;;;;;;;19.21;10.70;;;;;;;;;;361614;147;865843;-58
2021/12/04 01:34:29;;;;;;;21.05;11.93;;;;;;;;;;363414;148;866203;-60
2021/12/04 01:35:30;;;;;;;25.26;14.29;;;;;;;;;;362900;147;857335;-60
2021/12/04 01:36:32;;;;;;;23.91;11.84;;;;;;;;;;361320;147;864880;-60
2021/12/04 01:37:34;;;;;;;22.45;11.45;;;;;;;;;;363483;147;866612;-58
2021/12/04 01:38:36;;;;;;;21.60;11.54;;;;;;;;;;361001;147;860452;-57
2021/12/04 01:39:37;;;;;;;20.87;12.13;;;;;;;;;;362217;147;857293;-58
2021/12/04 01:40:39;;;;;;;21.89;11.89;;;;;;;;;;360727;148;857206;-58
2021/12/04 01:41:41;;;;;;;17.93;10.53;;;;;;;;;;360633;148;865793;-58
2021/12/04 01:42:42;;;;;;;23.09;11.75;;;;;;;;;;359720;147;866698;-59
2021/12/04 01:43:44;;;;;;;23.27;11.72;;;;;;;;;;359920;147;863732;-58
2021/12/04 01:44:46;;;;;;;21.55;11.57;;;;;;;;;;363589;147;863979;-59
2021/12/04 01:45:48;;;;;;;18.87;10.84;;;;;;;;;;360470;147;857531;-58
2021/12/04 01:46:55;;;;;;;24.09;12.26;;;;;;;;;;358986;147;856200;-58
2021/12/04 01:47:59;;;;;;;19.45;11.71;;;;;;;;;;362155;148;864843;-58
2021/12/04 01:49:01;;;;;;;18.92;10.69;;;;;;;;;;360364;148;858708;-58
2021/12/04 01:50:03;;;;;;;22.00;11.27;;;;;;;;;;360350;147;858528;-58
2021/12/04 01:51:05;;;;;;;21.59;12.47;;;;;;;;;;362580;148;857185;-58
2021/12/04 01:52:07;;;;;;;20.17;11.02;;;;;;;;;;362098;148;865197;-59
2021/12/04 01:53:09;;;;;;;22.10;10.47;;;;;;;;;;363225;147;864927;-58
2021/12/04 01:54:11;;;;;;;18.50;11.44;;;;;;;;;;361154;147;857236;-58
2021/12/04 01:55:12;;;;;;;18.21;8.55;;;;;;;;;;360832;147;859334;-58
2021/12/04 01:56:14;;;;;;;18.78;11.51;;;;;;;;;;362849;147;863255;-58
2021/12/04 01:57:16;;;;;;;20.72;11.49;;;;;;;;;;361496;147;858588;-58
2021/12/04 01:58:17;;;;;;;18.80;9.81;;;;;;;;;;360244;148;864755;-58
2021/12/04 01:59:19;;;;;;;18.02;10.91;;;;;;;;;;361612;148;864925;-58
2021/12/04 02:00:21;;;;;;;19.21;11.43;;;;;;;;;;361121;147;864842;-58
2021/12/04 02:01:23;;;;;;;20.43;11.50;;;;;;;;;;362366;147;864991;-59
2021/12/04 02:02:25;;;;;;;19.86;11.86;;;;;;;;;;362583;147;857208;-59
2021/12/04 02:03:26;;;;;;;18.49;10.89;;;;;;;;;;362746;147;864769;-59
2021/12/04 02:04:28;;;;;;;23.06;12.09;;;;;;;;;;363046;147;857229;-59
2021/12/04 02:05:30;;;;;;;22.66;11.66;;;;;;;;;;362342;148;865602;-58
2021/12/04 02:06:32;;;;;;;19.03;10.14;;;;;;;;;;362833;148;865565;-58
2021/12/04 02:07:34;;;;;;;19.41;12.10;;;;;;;;;;361836;147;866559;-59
2021/12/04 02:08:35;;;;;;;21.89;11.32;;;;;;;;;;361444;148;865325;-59
2021/12/04 02:09:37;;;;;;;15.44;8.46;;;;;;;;;;362815;148;861839;-58
2021/12/04 02:10:38;;;;;;;20.71;11.56;;;;;;;;;;361613;147;857370;-59
2021/12/04 02:11:40;;;;;;;18.91;12.19;;;;;;;;;;361680;147;859525;-59
2021/12/04 02:12:41;;;;;;;23.79;11.70;;;;;;;;;;362303;148;859846;-57
2021/12/04 02:13:43;;;;;;;25.34;11.59;;;;;;;;;;362824;146;861749;-56
2021/12/04 02:14:44;;;;;;;23.62;11.53;;;;;;;;;;363151;146;865057;-58
2021/12/04 02:15:46;;;;;;;20.52;11.19;;;;;;;;;;364095;148;861993;-58
2021/12/04 02:16:49;;;;;;;18.39;11.34;;;;;;;;;;361060;148;863920;-58
2021/12/04 02:17:51;;;;;;;22.89;12.12;;;;;;;;;;361967;147;865213;-58
2021/12/04 02:18:52;;;;;;;22.39;11.46;;;;;;;;;;361369;148;858286;-58
2021/12/04 02:19:54;;;;;;;21.84;10.21;;;;;;;;;;362861;147;863550;-59
2021/12/04 02:20:56;;;;;;;20.64;11.20;;;;;;;;;;362744;148;858614;-58
2021/12/04 02:21:57;;;;;;;25.17;11.66;;;;;;;;;;362023;147;864729;-58
2021/12/04 02:22:59;;;;;;;16.35;10.34;;;;;;;;;;359672;147;864675;-59
2021/12/04 02:24:01;;;;;;;17.43;10.75;;;;;;;;;;353618;150;866616;-58
2021/12/04 02:25:02;;;;;;;18.57;10.53;;;;;;;;;;355003;148;859085;-58
2021/12/04 02:26:04;;;;;;;22.97;11.07;;;;;;;;;;364166;148;866225;-59
2021/12/04 02:27:05;;;;;;;16.53;8.86;;;;;;;;;;358850;147;857385;-59
2021/12/04 02:28:07;;;;;;;20.87;10.74;;;;;;;;;;362227;146;857246;-58
2021/12/04 02:29:09;;;;;;;21.86;11.92;;;;;;;;;;359870;147;862755;-58
2021/12/04 02:30:12;;;;;;;17.71;10.96;;;;;;;;;;362599;148;857298;-59
2021/12/04 02:31:14;;;;;;;19.34;10.44;;;;;;;;;;363762;147;857233;-58
2021/12/04 02:32:17;;;;;;;15.74;9.99;;;;;;;;;;361836;147;857242;-58
2021/12/04 02:33:21;;;;;;;24.25;11.35;;;;;;;;;;354871;151;864850;-58
2021/12/04 02:34:27;;;;;;;13.98;8.96;;;;;;;;;;353965;148;857769;-58
2021/12/04 02:35:29;;;;;;;19.71;10.82;;;;;;;;;;361637;147;858629;-58
2021/12/04 02:36:31;;;;;;;20.84;11.76;;;;;;;;;;363105;147;857543;-58
2021/12/04 02:37:33;;;;;;;19.72;11.44;;;;;;;;;;360853;148;858614;-58
2021/12/04 02:38:35;;;;;;;23.84;10.54;;;;;;;;;;361380;147;864911;-58
2021/12/04 02:39:38;;;;;;;19.97;11.46;;;;;;;;;;354312;150;857252;-58
2021/12/04 02:40:43;;;;;;;18.71;10.49;;;;;;;;;;354308;148;866651;-60
2021/12/04 02:41:44;;;;;;;23.18;10.96;;;;;;;;;;361983;148;858073;-58
2021/12/04 02:42:45;;;;;;;18.81;10.55;;;;;;;;;;362152;147;858785;-58
2021/12/04 02:43:47;;;;;;;20.12;10.82;;;;;;;;;;362945;147;857417;-58
2021/12/04 02:44:48;;;;;;;19.95;10.50;;;;;;;;;;361885;148;859462;-58
2021/12/04 02:45:50;;;;;;;19.87;9.49;;;;;;;;;;362111;147;867058;-58
2021/12/04 02:46:51;;;;;;;22.32;11.34;;;;;;;;;;361865;147;859617;-58
2021/12/04 02:47:54;;;;;;;20.21;10.60;;;;;;;;;;362193;148;863985;-59
2021/12/04 02:48:56;;;;;;;16.86;10.29;;;;;;;;;;359027;148;864751;-59
2021/12/04 02:49:57;;;;;;;19.53;10.50;;;;;;;;;;359515;147;866159;-58
2021/12/04 02:50:59;;;;;;;20.61;10.85;;;;;;;;;;362809;148;865376;-58
2021/12/04 02:52:04;;;;;;;21.79;10.61;;;;;;;;;;362736;147;864667;-59
2021/12/04 02:53:05;;;;;;;18.65;10.61;;;;;;;;;;360533;147;857283;-58
2021/12/04 02:54:07;;;;;;;19.51;10.46;;;;;;;;;;361202;147;859170;-58
2021/12/04 02:55:09;;;;;;;21.09;10.74;;;;;;;;;;355495;148;866276;-58
2021/12/04 02:56:11;;;;;;;17.93;9.91;;;;;;;;;;360862;147;865841;-58
2021/12/04 02:57:14;;;;;;;20.09;11.27;;;;;;;;;;361471;147;857295;-58
2021/12/04 02:58:16;;;;;;;23.50;11.17;;;;;;;;;;361860;148;859396;-58
2021/12/04 02:59:18;;;;;;;21.63;11.27;;;;;;;;;;361501;147;866492;-58
2021/12/04 03:00:23;;;;;;;19.32;10.74;;;;;;;;;;360572;147;858881;-58
2021/12/04 03:01:25;;;;;;;19.20;12.07;;;;;;;;;;361559;147;858075;-58
2021/12/04 03:02:26;;;;;;;21.19;11.03;;;;;;;;;;358309;148;866572;-58
2021/12/04 03:03:30;;;;;;;20.61;11.40;;;;;;;;;;361732;147;866436;-58
2021/12/04 03:04:31;;;;;;;18.12;9.96;;;;;;;;;;360094;147;865480;-58
2021/12/04 03:05:33;;;;;;;19.94;10.03;;;;;;;;;;361857;148;858571;-56
2021/12/04 03:06:39;;;;;;;20.58;10.56;;;;;;;;;;359552;147;865127;-58
2021/12/04 03:07:40;;;;;;;20.09;11.09;;;;;;;;;;359983;147;863175;-58
2021/12/04 03:08:43;;;;;;;17.76;9.40;;;;;;;;;;359027;148;857256;-59
2021/12/04 03:09:45;;;;;;;20.51;10.13;;;;;;;;;;360872;147;865152;-58
2021/12/04 03:10:48;;;;;;;22.29;10.90;;;;;;;;;;362137;146;858196;-57
2021/12/04 03:11:50;;;;;;;18.96;9.25;;;;;;;;;;362751;147;857393;-58
2021/12/04 03:12:51;;;;;;;18.52;10.63;;;;;;;;;;362619;148;857359;-58
2021/12/04 03:13:53;;;;;;;19.68;10.24;;;;;;;;;;361119;147;859103;-58
2021/12/04 03:14:55;;;;;;;18.37;11.15;;;;;;;;;;362305;147;866541;-58
2021/12/04 03:15:59;;;;;;;20.07;10.67;;;;;;;;;;362340;148;859249;-58
2021/12/04 03:17:01;;;;;;;19.50;10.16;;;;;;;;;;358866;147;865225;-58
2021/12/04 03:18:03;;;;;;;21.49;10.43;;;;;;;;;;362543;146;857483;-58
2021/12/04 03:19:04;;;;;;;18.61;10.41;;;;;;;;;;362967;148;857646;-58
2021/12/04 03:20:07;;;;;;;17.34;9.67;;;;;;;;;;359293;148;865408;-58
2021/12/04 03:21:09;;;;;;;18.96;10.83;;;;;;;;;;361068;147;857082;-58
2021/12/04 03:22:11;;;;;;;18.85;10.59;;;;;;;;;;360155;147;859266;-58
2021/12/04 03:23:18;;;;;;;15.25;9.05;;;;;;;;;;359887;147;859418;-58
2021/12/04 03:24:19;;;;;;;20.71;10.37;;;;;;;;;;357787;147;857634;-58
2021/12/04 03:25:21;;;;;;;18.46;9.93;;;;;;;;;;362778;147;857746;-58
2021/12/04 03:26:23;;;;;;;16.44;8.41;;;;;;;;;;361062;147;864993;-58
2021/12/04 03:27:26;;;;;;;23.43;10.37;;;;;;;;;;362721;148;859341;-59
2021/12/04 03:28:28;;;;;;;18.24;9.71;;;;;;;;;;360009;147;859448;-59
2021/12/04 03:29:31;;;;;;;20.95;10.27;;;;;;;;;;360286;147;858892;-59
2021/12/04 03:30:38;;;;;;;19.48;10.19;;;;;;;;;;360872;147;860477;-59
2021/12/04 03:35:12;;;;;;;18.09;10.51;;;;;;;;;;362290;147;860400;-59
2021/12/04 03:41:36;;;;;;;21.22;9.80;;;;;;;;;;358302;148;864989;-58
2021/12/04 03:42:38;;;;;;;18.39;9.30;;;;;;;;;;361728;147;857582;-59
2021/12/04 03:43:40;;;;;;;19.69;10.29;;;;;;;;;;362051;147;866028;-59
2021/12/04 03:44:41;;;;;;;18.78;9.26;;;;;;;;;;359497;147;867024;-59
2021/12/04 03:45:45;;;;;;;20.41;10.21;;;;;;;;;;360892;147;865369;-58
2021/12/04 03:46:48;;;;;;;18.66;9.39;;;;;;;;;;361907;147;863307;-58
2021/12/04 03:47:52;;;;;;;15.14;9.74;;;;;;;;;;360330;147;858658;-58
2021/12/04 03:48:53;;;;;;;17.71;10.74;;;;;;;;;;359546;148;857544;-58
2021/12/04 03:49:55;;;;;;;18.47;10.55;;;;;;;;;;360145;146;857225;-58
2021/12/04 03:50:56;;;;;;;17.47;9.66;;;;;;;;;;360782;147;857154;-59
2021/12/04 03:51:58;;;;;;;17.44;10.21;;;;;;;;;;359736;148;864945;-58
2021/12/04 03:53:00;;;;;;;18.04;9.97;;;;;;;;;;361565;148;857164;-59
2021/12/04 03:54:02;;;;;;;17.45;9.11;;;;;;;;;;360102;147;865124;-59
2021/12/04 03:55:04;;;;;;;17.36;8.67;;;;;;;;;;361057;148;862582;-59
2021/12/04 03:56:09;;;;;;;21.17;10.79;;;;;;;;;;360474;148;857640;-57
2021/12/04 03:57:12;;;;;;;16.21;9.22;;;;;;;;;;361429;147;859640;-57
2021/12/04 03:58:13;;;;;;;19.82;10.24;;;;;;;;;;361697;147;857286;-58
2021/12/04 03:59:15;;;;;;;21.01;10.31;;;;;;;;;;359553;148;856311;-58
2021/12/04 04:00:20;;;;;;;19.30;10.79;;;;;;;;;;361204;147;866191;-59
2021/12/04 04:01:22;;;;;;;18.91;10.96;;;;;;;;;;359164;147;858514;-58
2021/12/04 04:02:24;;;;;;;17.84;10.31;;;;;;;;;;360699;148;859849;-58
2021/12/04 04:03:27;;;;;;;23.04;10.18;;;;;;;;;;360512;147;864991;-58
2021/12/04 04:04:28;;;;;;;19.84;9.19;;;;;;;;;;360379;147;865861;-57
2021/12/04 04:05:30;;;;;;;19.06;11.24;;;;;;;;;;363134;147;857202;-57
2021/12/04 04:06:33;;;;;;;20.59;9.63;;;;;;;;;;362146;145;864722;-57
2021/12/04 04:07:34;;;;;;;18.93;9.97;;;;;;;;;;360970;146;866493;-58
2021/12/04 04:08:36;;;;;;;22.36;10.87;;;;;;;;;;360559;147;864501;-58
2021/12/04 04:09:37;;;;;;;20.12;10.44;;;;;;;;;;361370;148;865704;-58
2021/12/04 04:10:39;;;;;;;15.58;9.43;;;;;;;;;;362358;147;866150;-57
2021/12/04 04:11:41;;;;;;;21.01;11.13;;;;;;;;;;360384;147;857362;-57
2021/12/04 04:12:43;;;;;;;19.95;9.61;;;;;;;;;;359557;147;859889;-57
2021/12/04 04:13:45;;;;;;;19.08;9.61;;;;;;;;;;360585;148;858921;-58
2021/12/04 04:14:47;;;;;;;17.28;9.07;;;;;;;;;;360032;146;859308;-57
2021/12/04 04:15:48;;;;;;;19.62;10.35;;;;;;;;;;360105;147;856456;-57
2021/12/04 04:16:50;;;;;;;18.79;9.31;;;;;;;;;;361122;148;857250;-57
2021/12/04 04:17:52;;;;;;;16.26;10.09;;;;;;;;;;361487;147;864059;-57
2021/12/04 04:18:54;;;;;;;16.51;9.30;;;;;;;;;;359382;147;857280;-57
2021/12/04 04:19:55;;;;;;;16.19;9.72;;;;;;;;;;359139;148;856483;-58
2021/12/04 04:20:57;;;;;;;18.59;9.19;;;;;;;;;;362569;148;863767;-57
2021/12/04 04:21:59;;;;;;;18.97;10.43;;;;;;;;;;360332;147;857479;-57
2021/12/04 04:23:00;;;;;;;16.56;9.23;;;;;;;;;;359793;147;858909;-57
2021/12/04 04:24:02;;;;;;;18.53;9.76;;;;;;;;;;361759;148;865042;-57
2021/12/04 04:25:04;;;;;;;18.13;9.17;;;;;;;;;;358994;148;865016;-55
2021/12/04 04:26:06;;;;;;;18.08;9.82;;;;;;;;;;360906;147;863871;-58
2021/12/04 04:27:07;;;;;;;18.94;10.05;;;;;;;;;;362440;148;857250;-57
2021/12/04 04:28:09;;;;;;;17.46;9.76;;;;;;;;;;362078;147;866408;-57
2021/12/04 04:29:11;;;;;;;17.00;10.57;;;;;;;;;;360169;147;867788;-58
2021/12/04 04:30:15;;;;;;;19.46;9.87;;;;;;;;;;361504;147;856447;-59
2021/12/04 04:31:17;;;;;;;17.19;9.51;;;;;;;;;;357426;148;857223;-58
2021/12/04 04:32:18;;;;;;;19.24;9.75;;;;;;;;;;361907;146;859163;-57
2021/12/04 04:33:20;;;;;;;19.17;10.52;;;;;;;;;;347002;151;866228;-58
2021/12/04 04:34:30;;;;;;;18.38;10.77;;;;;;;;;;351443;149;859869;-59
2021/12/04 04:35:27;;;;;;;18.23;9.61;;;;;;;;;;349273;150;857136;-60
2021/12/04 04:59:59;;;;;;;18.15;9.53;;;;;;;;;;350217;153;859178;-61
2021/12/04 05:01:17;;;;;;;16.82;9.76;;;;;;;;;;348371;150;863997;-63
2021/12/04 05:02:29;;;;;;;17.44;9.98;;;;;;;;;;348116;151;856045;-59
2021/12/04 05:11:08;;;;;;;16.41;8.58;;;;;;;;;;345821;152;859105;-61
2021/12/04 05:13:16;;;;;;;15.34;9.54;;;;;;;;;;355734;149;858002;-60
2021/12/04 05:14:19;;;;;;;17.47;10.69;;;;;;;;;;347273;154;865173;-60
2021/12/04 05:15:23;;;;;;;20.11;10.33;;;;;;;;;;346510;153;866531;-60
2021/12/04 05:16:28;;;;;;;24.21;11.72;;;;;;;;;;346429;152;857339;-59
2021/12/04 05:18:55;;;;;;;21.36;10.81;;;;;;;;;;348583;151;864929;-60
2021/12/04 05:19:55;;;;;;;17.23;9.80;;;;;;;;;;349601;150;857814;-62
2021/12/04 05:21:06;;;;;;;19.25;10.01;;;;;;;;;;343705;153;857662;-58
2021/12/04 05:22:09;;;;;;;16.36;10.32;;;;;;;;;;344756;153;858970;-59
2021/12/04 05:23:11;;;;;;;19.47;10.19;;;;;;;;;;349927;150;857330;-60
2021/12/04 05:24:13;;;;;;;20.47;10.70;;;;;;;;;;348801;153;857415;-62
2021/12/04 05:25:14;;;;;;;17.95;9.98;;;;;;;;;;348782;153;859087;-62
2021/12/04 05:26:18;;;;;;;22.47;10.56;;;;;;;;;;349229;150;864445;-60
2021/12/04 05:27:20;;;;;;;20.49;10.96;;;;;;;;;;349343;151;866940;-60
2021/12/04 05:28:21;;;;;;;20.03;11.51;;;;;;;;;;350229;150;858743;-60
2021/12/04 05:29:23;;;;;;;18.44;10.46;;;;;;;;;;347586;150;864558;-60
2021/12/04 05:30:25;;;;;;;19.54;9.74;;;;;;;;;;348904;150;865856;-60
2021/12/04 05:31:27;;;;;;;19.61;10.17;;;;;;;;;;350382;151;858201;-59
2021/12/04 05:32:28;;;;;;;17.23;9.20;;;;;;;;;;347966;152;861997;-59
2021/12/04 05:33:30;;;;;;;17.85;9.41;;;;;;;;;;350045;152;858121;-60
2021/12/04 05:34:31;;;;;;;17.64;9.95;;;;;;;;;;351834;150;866533;-59
2021/12/04 05:35:33;;;;;;;19.47;9.16;;;;;;;;;;362818;145;863234;-59
2021/12/04 05:36:34;;;;;;;17.50;9.81;;;;;;;;;;363245;145;866529;-60
2021/12/04 05:37:36;;;;;;;23.90;10.15;;;;;;;;;;363330;145;865253;-61
2021/12/04 05:38:38;;;;;;;22.29;10.17;;;;;;;;;;368239;145;866027;-61
2021/12/04 05:39:39;;;;;;;23.19;11.24;;;;;;;;;;361031;145;866297;-62
2021/12/04 05:40:43;;;;;;;24.22;11.24;;;;;;;;;;362067;144;865663;-58
2021/12/04 05:41:44;;;;;;;22.44;10.43;;;;;;;;;;363857;144;862150;-58
2021/12/04 05:42:46;;;;;;;21.43;10.99;;;;;;;;;;363161;145;864795;-61
2021/12/04 05:43:48;;;;;;;25.31;11.71;;;;;;;;;;361790;145;867050;-62
2021/12/04 05:44:50;;;;;;;21.86;11.79;;;;;;;;;;362702;144;859076;-61
2021/12/04 05:46:16;;;;;;;21.26;11.44;;;;;;;;;;363916;144;856295;-62
2021/12/04 05:47:08;;;;;;;23.61;11.79;;;;;;;;;;358793;144;865005;-60
2021/12/04 05:48:07;;;;;;;19.90;10.24;;;;;;;;;;362256;145;857765;-62
2021/12/04 05:49:14;;;;;;;22.54;10.99;;;;;;;;;;362030;144;858994;-60
2021/12/04 05:50:25;;;;;;;20.59;11.03;;;;;;;;;;361774;145;865551;-59
2021/12/04 05:53:54;;;;;;;29.57;12.07;;;;;;;;;;362501;146;865591;-59
2021/12/04 05:56:04;;;;;;;23.26;11.01;;;;;;;;;;363232;145;859394;-59
2021/12/04 05:57:06;;;;;;;23.88;10.13;;;;;;;;;;365253;146;856707;-59
2021/12/04 05:58:08;;;;;;;23.81;10.59;;;;;;;;;;361909;145;858302;-61
2021/12/04 05:59:09;;;;;;;20.66;11.48;;;;;;;;;;362428;145;857393;-59
2021/12/04 06:00:17;;;;;;;19.87;9.84;;;;;;;;;;363187;146;863706;-59
2021/12/04 06:01:19;;;;;;;22.39;11.50;;;;;;;;;;362345;145;857819;-59
2021/12/04 06:02:22;;;;;;;24.93;11.31;;;;;;;;;;364329;146;859395;-60
2021/12/04 06:03:24;;;;;;;19.33;10.51;;;;;;;;;;363540;144;857829;-60
2021/12/04 06:04:26;;;;;;;23.71;11.18;;;;;;;;;;361468;145;866330;-59
2021/12/04 06:05:29;;;;;;;20.59;10.01;;;;;;;;;;363502;145;866681;-61
2021/12/04 06:06:31;;;;;;;21.58;11.66;;;;;;;;;;364859;144;859313;-60
2021/12/04 06:07:33;;;;;;;24.63;11.10;;;;;;;;;;364974;145;860618;-60
2021/12/04 06:08:34;;;;;;;23.49;11.54;;;;;;;;;;362435;146;864964;-60
2021/12/04 06:09:36;;;;;;;20.84;10.60;;;;;;;;;;364240;144;861965;-60
2021/12/04 06:10:38;;;;;;;23.78;11.99;;;;;;;;;;363890;147;858103;-59
2021/12/04 06:11:40;;;;;;;25.27;11.51;;;;;;;;;;364067;145;866560;-60
2021/12/04 06:12:41;;;;;;;22.85;11.45;;;;;;;;;;362481;145;858733;-60
2021/12/04 06:13:43;;;;;;;24.49;11.95;;;;;;;;;;360624;146;864786;-60
2021/12/04 06:14:46;;;;;;;24.42;13.20;;;;;;;;;;365517;145;864835;-59
2021/12/04 06:15:48;;;;;;;25.58;12.14;;;;;;;;;;362898;144;857654;-60
2021/12/04 06:16:49;;;;;;;22.45;10.29;;;;;;;;;;363886;145;856125;-60
2021/12/04 06:17:53;;;;;;;21.82;11.52;;;;;;;;;;363463;145;867233;-61
2021/12/04 06:18:55;;;;;;;24.30;11.48;;;;;;;;;;362347;144;862849;-59
2021/12/04 06:22:37;;;;;;;24.33;11.96;;;;;;;;;;361545;145;858550;-60
2021/12/04 06:23:39;;;;;;;20.65;10.26;;;;;;;;;;364078;145;858681;-60
2021/12/04 06:24:43;;;;;;;21.73;11.01;;;;;;;;;;363890;147;857297;-60
2021/12/04 06:25:44;;;;;;;19.56;10.72;;;;;;;;;;364063;146;863930;-61
2021/12/04 06:26:46;;;;;;;22.11;10.94;;;;;;;;;;362551;145;858088;-60
2021/12/04 06:27:47;;;;;;;26.34;10.20;;;;;;;;;;364248;147;857303;-60
2021/12/04 06:28:49;;;;;;;21.11;11.82;;;;;;;;;;365002;146;863027;-60
2021/12/04 06:29:50;;;;;;;21.09;11.51;;;;;;;;;;363266;146;861594;-60
2021/12/04 06:30:55;;;;;;;24.69;11.34;;;;;;;;;;362330;146;856925;-60
2021/12/04 06:31:56;;;;;;;21.58;11.20;;;;;;;;;;365499;141;864109;-60
2021/12/04 06:32:58;;;;;;;20.41;11.31;;;;;;;;;;355026;147;857688;-61
2021/12/04 06:34:00;;;;;;;21.54;11.19;;;;;;;;;;356813;148;867194;-60
2021/12/04 06:35:01;;;;;;;20.91;11.67;;;;;;;;;;363376;146;863050;-60
2021/12/04 06:36:04;;;;;;;23.43;11.60;;;;;;;;;;362771;147;857234;-61
2021/12/04 06:37:05;;;;;;;20.24;11.37;;;;;;;;;;363658;146;857640;-61
2021/12/04 06:38:11;;;;;;;21.68;10.99;;;;;;;;;;363001;146;858648;-58
2021/12/04 06:39:12;;;;;;;21.12;10.38;;;;;;;;;;361582;148;857257;-60
2021/12/04 06:40:14;;;;;;;22.66;11.97;;;;;;;;;;361136;146;857342;-61
2021/12/04 06:41:16;;;;;;;18.96;11.23;;;;;;;;;;362076;146;865372;-60
2021/12/04 06:42:17;;;;;;;19.87;10.91;;;;;;;;;;360143;147;859108;-59
2021/12/04 06:43:19;;;;;;;21.59;10.64;;;;;;;;;;363466;146;859225;-60
2021/12/04 06:44:20;;;;;;;23.95;11.40;;;;;;;;;;362304;146;863919;-60
2021/12/04 06:45:23;;;;;;;28.44;12.04;;;;;;;;;;359465;147;864769;-60
2021/12/04 06:46:26;;;;;;;23.35;11.97;;;;;;;;;;358948;146;857289;-59
2021/12/04 06:47:29;;;;;;;26.41;11.44;;;;;;;;;;360385;147;857174;-59
2021/12/04 06:48:41;;;;;;;26.31;11.82;;;;;;;;;;360572;146;857212;-60
2021/12/04 06:49:42;;;;;;;21.23;11.42;;;;;;;;;;359331;146;864739;-60
2021/12/04 06:50:50;;;;;;;21.35;11.71;;;;;;;;;;353083;150;856117;-60
2021/12/04 06:51:51;;;;;;;26.52;12.95;;;;;;;;;;360019;146;859842;-61
2021/12/04 06:52:51;;;;;;;21.06;11.64;;;;;;;;;;360727;146;864946;-61
2021/12/04 06:54:06;;;;;;;23.43;11.53;;;;;;;;;;360707;146;857235;-62
2021/12/04 06:55:05;;;;;;;26.61;12.54;;;;;;;;;;360397;147;865727;-61
2021/12/04 06:56:10;;;;;;;23.51;12.37;;;;;;;;;;361709;148;857236;-61
2021/12/04 06:57:13;;;;;;;23.20;12.09;;;;;;;;;;362683;146;864817;-60
2021/12/04 06:58:14;;;;;;;26.78;12.84;;;;;;;;;;361477;146;856333;-60
2021/12/04 06:59:22;;;;;;;26.33;12.84;;;;;;;;;;362311;145;858415;-61
2021/12/04 07:00:20;;;;;;;23.48;12.22;;;;;;;;;;353074;149;857217;-60
2021/12/04 07:01:22;;;;;;;25.36;13.03;;;;;;;;;;360954;146;856696;-59